sensor_id;sensor_type;location;lat;lon;timestamp;P1;durP1;ratioP1;P2;durP2;ratioP2
20945;SDS011;10632;51.276;7.116;2024-02-16T00:00:07;1.30;;;0.45;;
20945;SDS011;10632;51.276;7.116;2024-02-16T00:02:36;1.75;;;0.70;;
20945;SDS011;10632;51.276;7.116;2024-02-16T00:05:06;4.07;;;0.60;;
20945;SDS011;10632;51.276;7.116;2024-02-16T00:07:32;1.10;;;0.60;;
20945;SDS011;10632;51.276;7.116;2024-02-16T00:10:01;2.08;;;0.95;;
20945;SDS011;10632;51.276;7.116;2024-02-16T00:12:29;6.32;;;0.60;;
20945;SDS011;10632;51.276;7.116;2024-02-16T00:14:57;1.83;;;0.80;;
20945;SDS011;10632;51.276;7.116;2024-02-16T00:17:24;2.05;;;0.70;;
20945;SDS011;10632;51.276;7.116;2024-02-16T00:19:55;2.58;;;0.80;;
20945;SDS011;10632;51.276;7.116;2024-02-16T00:22:22;1.25;;;0.45;;
20945;SDS011;10632;51.276;7.116;2024-02-16T00:24:49;2.17;;;0.65;;
20945;SDS011;10632;51.276;7.116;2024-02-16T00:27:17;3.42;;;0.80;;
20945;SDS011;10632;51.276;7.116;2024-02-16T00:29:44;1.48;;;0.63;;
20945;SDS011;10632;51.276;7.116;2024-02-16T00:32:12;1.02;;;0.60;;
20945;SDS011;10632;51.276;7.116;2024-02-16T00:34:39;1.75;;;0.57;;
20945;SDS011;10632;51.276;7.116;2024-02-16T00:37:06;1.15;;;0.40;;
20945;SDS011;10632;51.276;7.116;2024-02-16T00:39:35;2.10;;;0.70;;
20945;SDS011;10632;51.276;7.116;2024-02-16T00:42:02;2.20;;;0.60;;
20945;SDS011;10632;51.276;7.116;2024-02-16T00:44:30;5.00;;;0.60;;
20945;SDS011;10632;51.276;7.116;2024-02-16T00:46:57;2.22;;;0.57;;
20945;SDS011;10632;51.276;7.116;2024-02-16T00:49:24;2.75;;;0.70;;
20945;SDS011;10632;51.276;7.116;2024-02-16T00:51:51;1.67;;;0.60;;
20945;SDS011;10632;51.276;7.116;2024-02-16T00:54:17;4.05;;;0.85;;
20945;SDS011;10632;51.276;7.116;2024-02-16T00:56:45;2.80;;;0.77;;
20945;SDS011;10632;51.276;7.116;2024-02-16T00:59:12;1.83;;;0.55;;
20945;SDS011;10632;51.276;7.116;2024-02-16T01:01:40;1.77;;;0.60;;
20945;SDS011;10632;51.276;7.116;2024-02-16T01:04:07;1.70;;;0.60;;
20945;SDS011;10632;51.276;7.116;2024-02-16T01:06:34;1.13;;;0.55;;
20945;SDS011;10632;51.276;7.116;2024-02-16T01:09:01;3.00;;;0.80;;
20945;SDS011;10632;51.276;7.116;2024-02-16T01:11:29;2.60;;;0.73;;
20945;SDS011;10632;51.276;7.116;2024-02-16T01:13:56;2.38;;;0.85;;
20945;SDS011;10632;51.276;7.116;2024-02-16T01:16:23;1.55;;;0.50;;
20945;SDS011;10632;51.276;7.116;2024-02-16T01:18:51;2.20;;;0.80;;
20945;SDS011;10632;51.276;7.116;2024-02-16T01:21:18;2.22;;;0.80;;
20945;SDS011;10632;51.276;7.116;2024-02-16T01:23:45;4.45;;;0.80;;
20945;SDS011;10632;51.276;7.116;2024-02-16T01:26:12;1.45;;;0.70;;
20945;SDS011;10632;51.276;7.116;2024-02-16T01:28:39;1.35;;;0.60;;
20945;SDS011;10632;51.276;7.116;2024-02-16T01:31:06;2.00;;;0.60;;
20945;SDS011;10632;51.276;7.116;2024-02-16T01:33:34;2.75;;;0.55;;
20945;SDS011;10632;51.276;7.116;2024-02-16T01:36:03;1.95;;;0.80;;
20945;SDS011;10632;51.276;7.116;2024-02-16T01:38:31;1.10;;;0.50;;
20945;SDS011;10632;51.276;7.116;2024-02-16T01:40:58;3.10;;;0.65;;
20945;SDS011;10632;51.276;7.116;2024-02-16T01:43:26;2.08;;;0.52;;
20945;SDS011;10632;51.276;7.116;2024-02-16T01:45:52;4.10;;;0.80;;
20945;SDS011;10632;51.276;7.116;2024-02-16T01:48:19;1.15;;;0.50;;
20945;SDS011;10632;51.276;7.116;2024-02-16T01:50:46;2.15;;;0.82;;
20945;SDS011;10632;51.276;7.116;2024-02-16T01:53:16;1.25;;;0.60;;
20945;SDS011;10632;51.276;7.116;2024-02-16T01:55:44;4.55;;;0.70;;
20945;SDS011;10632;51.276;7.116;2024-02-16T01:58:12;2.70;;;0.70;;
20945;SDS011;10632;51.276;7.116;2024-02-16T02:00:39;2.25;;;0.68;;
20945;SDS011;10632;51.276;7.116;2024-02-16T02:03:07;2.38;;;0.80;;
20945;SDS011;10632;51.276;7.116;2024-02-16T02:05:34;2.15;;;0.60;;
20945;SDS011;10632;51.276;7.116;2024-02-16T02:08:10;2.58;;;0.82;;
20945;SDS011;10632;51.276;7.116;2024-02-16T02:10:38;3.38;;;0.77;;
20945;SDS011;10632;51.276;7.116;2024-02-16T02:13:08;1.73;;;0.57;;
20945;SDS011;10632;51.276;7.116;2024-02-16T02:15:35;1.85;;;0.75;;
20945;SDS011;10632;51.276;7.116;2024-02-16T02:18:02;4.68;;;0.73;;
20945;SDS011;10632;51.276;7.116;2024-02-16T02:20:29;2.05;;;0.70;;
20945;SDS011;10632;51.276;7.116;2024-02-16T02:22:57;2.83;;;0.80;;
20945;SDS011;10632;51.276;7.116;2024-02-16T02:25:24;2.35;;;0.73;;
20945;SDS011;10632;51.276;7.116;2024-02-16T02:27:53;1.77;;;0.65;;
20945;SDS011;10632;51.276;7.116;2024-02-16T02:30:20;1.10;;;0.60;;
20945;SDS011;10632;51.276;7.116;2024-02-16T02:32:49;1.17;;;0.57;;
20945;SDS011;10632;51.276;7.116;2024-02-16T02:35:16;2.45;;;0.80;;
20945;SDS011;10632;51.276;7.116;2024-02-16T02:37:44;4.88;;;0.93;;
20945;SDS011;10632;51.276;7.116;2024-02-16T02:40:12;4.30;;;0.90;;
20945;SDS011;10632;51.276;7.116;2024-02-16T02:42:39;1.23;;;0.57;;
20945;SDS011;10632;51.276;7.116;2024-02-16T02:45:07;6.07;;;0.90;;
20945;SDS011;10632;51.276;7.116;2024-02-16T02:47:34;2.15;;;0.90;;
20945;SDS011;10632;51.276;7.116;2024-02-16T02:50:01;1.63;;;0.60;;
20945;SDS011;10632;51.276;7.116;2024-02-16T02:52:29;3.53;;;0.70;;
20945;SDS011;10632;51.276;7.116;2024-02-16T02:54:55;1.80;;;0.63;;
20945;SDS011;10632;51.276;7.116;2024-02-16T02:57:23;1.48;;;0.75;;
20945;SDS011;10632;51.276;7.116;2024-02-16T02:59:50;3.35;;;0.80;;
20945;SDS011;10632;51.276;7.116;2024-02-16T03:02:17;2.50;;;0.80;;
20945;SDS011;10632;51.276;7.116;2024-02-16T03:04:46;3.03;;;0.70;;
20945;SDS011;10632;51.276;7.116;2024-02-16T03:07:14;2.75;;;0.80;;
20945;SDS011;10632;51.276;7.116;2024-02-16T03:09:40;4.47;;;0.63;;
20945;SDS011;10632;51.276;7.116;2024-02-16T03:12:08;2.53;;;0.90;;
20945;SDS011;10632;51.276;7.116;2024-02-16T03:14:40;1.48;;;0.60;;
20945;SDS011;10632;51.276;7.116;2024-02-16T03:17:07;1.52;;;0.47;;
20945;SDS011;10632;51.276;7.116;2024-02-16T03:19:34;2.22;;;0.80;;
20945;SDS011;10632;51.276;7.116;2024-02-16T03:22:01;2.55;;;0.57;;
20945;SDS011;10632;51.276;7.116;2024-02-16T03:24:28;2.53;;;0.75;;
20945;SDS011;10632;51.276;7.116;2024-02-16T03:26:55;3.25;;;0.70;;
20945;SDS011;10632;51.276;7.116;2024-02-16T03:29:22;5.25;;;0.85;;
20945;SDS011;10632;51.276;7.116;2024-02-16T03:31:51;1.77;;;0.65;;
20945;SDS011;10632;51.276;7.116;2024-02-16T03:34:17;1.02;;;0.40;;
20945;SDS011;10632;51.276;7.116;2024-02-16T03:36:44;5.13;;;0.77;;
20945;SDS011;10632;51.276;7.116;2024-02-16T03:39:11;2.55;;;0.77;;
20945;SDS011;10632;51.276;7.116;2024-02-16T03:41:38;2.53;;;1.00;;
20945;SDS011;10632;51.276;7.116;2024-02-16T03:44:05;1.98;;;0.75;;
20945;SDS011;10632;51.276;7.116;2024-02-16T03:46:32;2.05;;;0.60;;
20945;SDS011;10632;51.276;7.116;2024-02-16T03:49:00;1.88;;;0.70;;
20945;SDS011;10632;51.276;7.116;2024-02-16T03:51:27;2.08;;;0.50;;
20945;SDS011;10632;51.276;7.116;2024-02-16T03:53:54;1.80;;;0.65;;
20945;SDS011;10632;51.276;7.116;2024-02-16T03:56:21;1.95;;;0.60;;
20945;SDS011;10632;51.276;7.116;2024-02-16T03:58:48;3.65;;;0.60;;
20945;SDS011;10632;51.276;7.116;2024-02-16T04:01:15;2.50;;;0.73;;
20945;SDS011;10632;51.276;7.116;2024-02-16T04:03:41;1.38;;;0.47;;
20945;SDS011;10632;51.276;7.116;2024-02-16T04:06:10;2.35;;;0.85;;
20945;SDS011;10632;51.276;7.116;2024-02-16T04:08:36;2.90;;;0.80;;
20945;SDS011;10632;51.276;7.116;2024-02-16T04:11:10;2.00;;;0.82;;
20945;SDS011;10632;51.276;7.116;2024-02-16T04:13:38;4.57;;;0.90;;
20945;SDS011;10632;51.276;7.116;2024-02-16T04:16:05;2.13;;;0.60;;
20945;SDS011;10632;51.276;7.116;2024-02-16T04:18:32;2.03;;;0.80;;
20945;SDS011;10632;51.276;7.116;2024-02-16T04:20:59;2.95;;;0.73;;
20945;SDS011;10632;51.276;7.116;2024-02-16T04:23:27;1.58;;;0.60;;
20945;SDS011;10632;51.276;7.116;2024-02-16T04:25:54;1.40;;;0.70;;
20945;SDS011;10632;51.276;7.116;2024-02-16T04:28:22;3.10;;;0.60;;
20945;SDS011;10632;51.276;7.116;2024-02-16T04:30:49;1.65;;;0.60;;
20945;SDS011;10632;51.276;7.116;2024-02-16T04:33:15;1.92;;;0.60;;
20945;SDS011;10632;51.276;7.116;2024-02-16T04:35:42;1.50;;;0.55;;
20945;SDS011;10632;51.276;7.116;2024-02-16T04:38:11;2.28;;;0.90;;
20945;SDS011;10632;51.276;7.116;2024-02-16T04:40:40;3.50;;;0.88;;
20945;SDS011;10632;51.276;7.116;2024-02-16T04:43:07;3.10;;;0.63;;
20945;SDS011;10632;51.276;7.116;2024-02-16T04:45:34;2.85;;;0.68;;
20945;SDS011;10632;51.276;7.116;2024-02-16T04:48:04;2.50;;;0.80;;
20945;SDS011;10632;51.276;7.116;2024-02-16T04:50:32;4.00;;;0.75;;
20945;SDS011;10632;51.276;7.116;2024-02-16T04:52:59;1.48;;;0.50;;
20945;SDS011;10632;51.276;7.116;2024-02-16T04:55:27;2.40;;;0.80;;
20945;SDS011;10632;51.276;7.116;2024-02-16T04:57:56;2.22;;;0.77;;
20945;SDS011;10632;51.276;7.116;2024-02-16T05:00:24;2.08;;;0.70;;
20945;SDS011;10632;51.276;7.116;2024-02-16T05:02:54;1.40;;;0.68;;
20945;SDS011;10632;51.276;7.116;2024-02-16T05:05:21;4.10;;;0.88;;
20945;SDS011;10632;51.276;7.116;2024-02-16T05:07:49;4.93;;;0.90;;
20945;SDS011;10632;51.276;7.116;2024-02-16T05:10:16;2.55;;;0.85;;
20945;SDS011;10632;51.276;7.116;2024-02-16T05:12:44;3.42;;;0.73;;
20945;SDS011;10632;51.276;7.116;2024-02-16T05:15:13;1.38;;;0.65;;
20945;SDS011;10632;51.276;7.116;2024-02-16T05:17:40;2.15;;;0.65;;
20945;SDS011;10632;51.276;7.116;2024-02-16T05:20:09;5.68;;;0.75;;
20945;SDS011;10632;51.276;7.116;2024-02-16T05:22:40;1.98;;;0.70;;
20945;SDS011;10632;51.276;7.116;2024-02-16T05:25:08;2.38;;;0.70;;
20945;SDS011;10632;51.276;7.116;2024-02-16T05:27:35;1.38;;;0.60;;
20945;SDS011;10632;51.276;7.116;2024-02-16T05:30:05;1.40;;;0.63;;
20945;SDS011;10632;51.276;7.116;2024-02-16T05:32:36;2.72;;;0.80;;
20945;SDS011;10632;51.276;7.116;2024-02-16T05:35:04;2.72;;;0.80;;
20945;SDS011;10632;51.276;7.116;2024-02-16T05:37:36;2.83;;;0.93;;
20945;SDS011;10632;51.276;7.116;2024-02-16T05:40:06;2.00;;;0.68;;
20945;SDS011;10632;51.276;7.116;2024-02-16T05:42:44;1.52;;;0.70;;
20945;SDS011;10632;51.276;7.116;2024-02-16T05:45:12;4.32;;;1.00;;
20945;SDS011;10632;51.276;7.116;2024-02-16T05:47:40;3.25;;;0.93;;
20945;SDS011;10632;51.276;7.116;2024-02-16T05:50:08;1.98;;;0.73;;
20945;SDS011;10632;51.276;7.116;2024-02-16T05:52:37;1.50;;;0.47;;
20945;SDS011;10632;51.276;7.116;2024-02-16T05:55:04;2.72;;;0.80;;
20945;SDS011;10632;51.276;7.116;2024-02-16T05:57:32;1.20;;;0.70;;
20945;SDS011;10632;51.276;7.116;2024-02-16T05:59:59;2.42;;;0.70;;
20945;SDS011;10632;51.276;7.116;2024-02-16T06:02:29;2.63;;;1.08;;
20945;SDS011;10632;51.276;7.116;2024-02-16T06:04:57;2.88;;;1.00;;
20945;SDS011;10632;51.276;7.116;2024-02-16T06:07:24;5.00;;;0.70;;
20945;SDS011;10632;51.276;7.116;2024-02-16T06:09:51;1.83;;;0.82;;
20945;SDS011;10632;51.276;7.116;2024-02-16T06:12:19;2.55;;;0.95;;
20945;SDS011;10632;51.276;7.116;2024-02-16T06:14:46;3.10;;;0.70;;
20945;SDS011;10632;51.276;7.116;2024-02-16T06:17:13;2.30;;;0.90;;
20945;SDS011;10632;51.276;7.116;2024-02-16T06:19:40;2.03;;;0.93;;
20945;SDS011;10632;51.276;7.116;2024-02-16T06:22:08;3.30;;;0.80;;
20945;SDS011;10632;51.276;7.116;2024-02-16T06:24:35;3.10;;;1.00;;
20945;SDS011;10632;51.276;7.116;2024-02-16T06:27:03;2.25;;;0.90;;
20945;SDS011;10632;51.276;7.116;2024-02-16T06:29:30;1.90;;;0.80;;
20945;SDS011;10632;51.276;7.116;2024-02-16T06:31:57;2.17;;;0.70;;
20945;SDS011;10632;51.276;7.116;2024-02-16T06:34:24;6.28;;;1.00;;
20945;SDS011;10632;51.276;7.116;2024-02-16T06:36:51;2.33;;;1.00;;
20945;SDS011;10632;51.276;7.116;2024-02-16T06:39:19;3.33;;;1.10;;
20945;SDS011;10632;51.276;7.116;2024-02-16T06:41:46;2.75;;;0.80;;
20945;SDS011;10632;51.276;7.116;2024-02-16T06:44:17;2.58;;;0.80;;
20945;SDS011;10632;51.276;7.116;2024-02-16T06:46:44;2.75;;;0.80;;
20945;SDS011;10632;51.276;7.116;2024-02-16T06:49:11;3.22;;;1.10;;
20945;SDS011;10632;51.276;7.116;2024-02-16T06:51:38;2.20;;;0.80;;
20945;SDS011;10632;51.276;7.116;2024-02-16T06:54:05;2.95;;;1.05;;
20945;SDS011;10632;51.276;7.116;2024-02-16T06:56:33;4.55;;;0.73;;
20945;SDS011;10632;51.276;7.116;2024-02-16T06:59:00;3.50;;;0.90;;
20945;SDS011;10632;51.276;7.116;2024-02-16T07:01:27;2.88;;;1.00;;
20945;SDS011;10632;51.276;7.116;2024-02-16T07:03:54;2.20;;;1.00;;
20945;SDS011;10632;51.276;7.116;2024-02-16T07:06:21;3.03;;;0.70;;
20945;SDS011;10632;51.276;7.116;2024-02-16T07:08:48;3.28;;;0.90;;
20945;SDS011;10632;51.276;7.116;2024-02-16T07:11:15;4.53;;;0.95;;
20945;SDS011;10632;51.276;7.116;2024-02-16T07:13:45;3.53;;;1.00;;
20945;SDS011;10632;51.276;7.116;2024-02-16T07:16:11;1.92;;;0.75;;
20945;SDS011;10632;51.276;7.116;2024-02-16T07:18:39;3.58;;;1.20;;
20945;SDS011;10632;51.276;7.116;2024-02-16T07:21:07;2.00;;;0.98;;
20945;SDS011;10632;51.276;7.116;2024-02-16T07:23:34;3.72;;;0.90;;
20945;SDS011;10632;51.276;7.116;2024-02-16T07:26:01;3.78;;;1.23;;
20945;SDS011;10632;51.276;7.116;2024-02-16T07:28:28;3.70;;;0.60;;
20945;SDS011;10632;51.276;7.116;2024-02-16T07:30:57;2.78;;;0.95;;
20945;SDS011;10632;51.276;7.116;2024-02-16T07:33:24;2.00;;;0.63;;
20945;SDS011;10632;51.276;7.116;2024-02-16T07:35:53;4.68;;;0.93;;
20945;SDS011;10632;51.276;7.116;2024-02-16T07:38:20;1.70;;;0.80;;
20945;SDS011;10632;51.276;7.116;2024-02-16T07:40:47;4.32;;;0.88;;
20945;SDS011;10632;51.276;7.116;2024-02-16T07:43:15;2.60;;;0.98;;
20945;SDS011;10632;51.276;7.116;2024-02-16T07:45:42;2.60;;;0.90;;
20945;SDS011;10632;51.276;7.116;2024-02-16T07:48:10;2.28;;;0.80;;
20945;SDS011;10632;51.276;7.116;2024-02-16T07:50:37;1.75;;;0.75;;
20945;SDS011;10632;51.276;7.116;2024-02-16T07:53:04;1.85;;;0.80;;
20945;SDS011;10632;51.276;7.116;2024-02-16T07:55:31;3.47;;;0.90;;
20945;SDS011;10632;51.276;7.116;2024-02-16T07:57:58;7.20;;;1.00;;
20945;SDS011;10632;51.276;7.116;2024-02-16T08:00:25;4.30;;;1.02;;
20945;SDS011;10632;51.276;7.116;2024-02-16T08:02:53;2.08;;;0.90;;
20945;SDS011;10632;51.276;7.116;2024-02-16T08:05:21;2.47;;;0.90;;
20945;SDS011;10632;51.276;7.116;2024-02-16T08:07:49;2.75;;;0.90;;
20945;SDS011;10632;51.276;7.116;2024-02-16T08:10:18;3.33;;;1.10;;
20945;SDS011;10632;51.276;7.116;2024-02-16T08:12:50;3.17;;;0.98;;
20945;SDS011;10632;51.276;7.116;2024-02-16T08:15:17;2.20;;;0.70;;
20945;SDS011;10632;51.276;7.116;2024-02-16T08:17:48;1.55;;;0.70;;
20945;SDS011;10632;51.276;7.116;2024-02-16T08:20:15;3.10;;;0.90;;
20945;SDS011;10632;51.276;7.116;2024-02-16T08:22:43;2.97;;;1.00;;
20945;SDS011;10632;51.276;7.116;2024-02-16T08:25:10;2.97;;;0.90;;
20945;SDS011;10632;51.276;7.116;2024-02-16T08:27:37;3.33;;;0.93;;
20945;SDS011;10632;51.276;7.116;2024-02-16T08:30:04;3.28;;;1.02;;
20945;SDS011;10632;51.276;7.116;2024-02-16T08:32:35;3.42;;;0.90;;
20945;SDS011;10632;51.276;7.116;2024-02-16T08:35:02;2.65;;;1.00;;
20945;SDS011;10632;51.276;7.116;2024-02-16T08:37:29;4.80;;;1.20;;
20945;SDS011;10632;51.276;7.116;2024-02-16T08:39:57;2.55;;;1.10;;
20945;SDS011;10632;51.276;7.116;2024-02-16T08:42:24;3.47;;;0.90;;
20945;SDS011;10632;51.276;7.116;2024-02-16T08:44:51;2.75;;;0.80;;
20945;SDS011;10632;51.276;7.116;2024-02-16T08:47:17;3.42;;;0.80;;
20945;SDS011;10632;51.276;7.116;2024-02-16T08:49:44;1.90;;;0.90;;
20945;SDS011;10632;51.276;7.116;2024-02-16T08:52:11;2.88;;;0.85;;
20945;SDS011;10632;51.276;7.116;2024-02-16T08:54:38;2.20;;;0.90;;
20945;SDS011;10632;51.276;7.116;2024-02-16T08:57:06;2.50;;;0.80;;
20945;SDS011;10632;51.276;7.116;2024-02-16T08:59:35;3.88;;;1.00;;
20945;SDS011;10632;51.276;7.116;2024-02-16T09:02:04;7.18;;;1.20;;
20945;SDS011;10632;51.276;7.116;2024-02-16T09:04:32;3.15;;;1.10;;
20945;SDS011;10632;51.276;7.116;2024-02-16T09:06:59;3.10;;;0.90;;
20945;SDS011;10632;51.276;7.116;2024-02-16T09:09:26;3.63;;;0.77;;
20945;SDS011;10632;51.276;7.116;2024-02-16T09:11:53;3.17;;;0.85;;
20945;SDS011;10632;51.276;7.116;2024-02-16T09:14:21;3.45;;;1.27;;
20945;SDS011;10632;51.276;7.116;2024-02-16T09:16:48;1.60;;;0.80;;
20945;SDS011;10632;51.276;7.116;2024-02-16T09:19:16;2.28;;;1.00;;
20945;SDS011;10632;51.276;7.116;2024-02-16T09:21:44;2.90;;;1.00;;
20945;SDS011;10632;51.276;7.116;2024-02-16T09:24:11;4.20;;;1.00;;
20945;SDS011;10632;51.276;7.116;2024-02-16T09:26:42;1.90;;;0.80;;
20945;SDS011;10632;51.276;7.116;2024-02-16T09:29:11;3.20;;;0.77;;
20945;SDS011;10632;51.276;7.116;2024-02-16T09:31:40;3.17;;;0.90;;
20945;SDS011;10632;51.276;7.116;2024-02-16T09:34:07;3.20;;;0.98;;
20945;SDS011;10632;51.276;7.116;2024-02-16T09:36:34;2.65;;;1.10;;
20945;SDS011;10632;51.276;7.116;2024-02-16T09:39:01;3.80;;;1.00;;
20945;SDS011;10632;51.276;7.116;2024-02-16T09:41:29;4.18;;;1.10;;
20945;SDS011;10632;51.276;7.116;2024-02-16T09:43:57;12.48;;;1.15;;
20945;SDS011;10632;51.276;7.116;2024-02-16T09:46:24;2.10;;;0.90;;
20945;SDS011;10632;51.276;7.116;2024-02-16T09:48:53;4.25;;;1.00;;
20945;SDS011;10632;51.276;7.116;2024-02-16T09:51:21;6.93;;;1.20;;
20945;SDS011;10632;51.276;7.116;2024-02-16T09:53:49;3.47;;;0.98;;
20945;SDS011;10632;51.276;7.116;2024-02-16T09:56:18;4.82;;;1.10;;
20945;SDS011;10632;51.276;7.116;2024-02-16T09:58:45;5.72;;;1.20;;
20945;SDS011;10632;51.276;7.116;2024-02-16T10:01:17;4.22;;;1.10;;
20945;SDS011;10632;51.276;7.116;2024-02-16T10:03:44;3.47;;;1.17;;
20945;SDS011;10632;51.276;7.116;2024-02-16T10:06:13;1.85;;;0.73;;
20945;SDS011;10632;51.276;7.116;2024-02-16T10:08:47;2.75;;;0.88;;
20945;SDS011;10632;51.276;7.116;2024-02-16T10:11:15;3.35;;;1.10;;
20945;SDS011;10632;51.276;7.116;2024-02-16T10:13:44;3.80;;;0.93;;
20945;SDS011;10632;51.276;7.116;2024-02-16T10:16:20;5.28;;;1.15;;
20945;SDS011;10632;51.276;7.116;2024-02-16T10:18:47;2.72;;;1.00;;
20945;SDS011;10632;51.276;7.116;2024-02-16T10:21:23;3.25;;;1.17;;
20945;SDS011;10632;51.276;7.116;2024-02-16T10:23:55;3.17;;;1.20;;
20945;SDS011;10632;51.276;7.116;2024-02-16T10:26:23;3.20;;;0.68;;
20945;SDS011;10632;51.276;7.116;2024-02-16T10:28:50;4.30;;;1.02;;
20945;SDS011;10632;51.276;7.116;2024-02-16T10:31:22;4.45;;;1.20;;
20945;SDS011;10632;51.276;7.116;2024-02-16T10:33:54;3.47;;;1.13;;
20945;SDS011;10632;51.276;7.116;2024-02-16T10:36:24;4.47;;;1.00;;
20945;SDS011;10632;51.276;7.116;2024-02-16T10:38:53;5.43;;;1.10;;
20945;SDS011;10632;51.276;7.116;2024-02-16T10:41:22;3.65;;;1.20;;
20945;SDS011;10632;51.276;7.116;2024-02-16T10:43:54;3.30;;;0.98;;
20945;SDS011;10632;51.276;7.116;2024-02-16T10:46:22;2.92;;;1.15;;
20945;SDS011;10632;51.276;7.116;2024-02-16T10:48:50;6.40;;;1.27;;
20945;SDS011;10632;51.276;7.116;2024-02-16T10:51:18;3.22;;;1.02;;
20945;SDS011;10632;51.276;7.116;2024-02-16T10:53:50;5.30;;;1.27;;
20945;SDS011;10632;51.276;7.116;2024-02-16T10:56:26;7.60;;;1.10;;
20945;SDS011;10632;51.276;7.116;2024-02-16T10:58:54;3.03;;;1.30;;
20945;SDS011;10632;51.276;7.116;2024-02-16T11:01:21;3.35;;;1.20;;
20945;SDS011;10632;51.276;7.116;2024-02-16T11:03:49;5.53;;;1.63;;
20945;SDS011;10632;51.276;7.116;2024-02-16T11:06:26;3.10;;;1.08;;
20945;SDS011;10632;51.276;7.116;2024-02-16T11:08:54;6.57;;;1.25;;
20945;SDS011;10632;51.276;7.116;2024-02-16T11:11:28;3.85;;;1.20;;
20945;SDS011;10632;51.276;7.116;2024-02-16T11:13:55;5.07;;;1.52;;
20945;SDS011;10632;51.276;7.116;2024-02-16T11:16:22;4.72;;;1.30;;
20945;SDS011;10632;51.276;7.116;2024-02-16T11:18:49;3.53;;;1.40;;
20945;SDS011;10632;51.276;7.116;2024-02-16T11:21:17;4.10;;;1.42;;
20945;SDS011;10632;51.276;7.116;2024-02-16T11:23:44;5.65;;;1.58;;
20945;SDS011;10632;51.276;7.116;2024-02-16T11:26:12;5.63;;;1.35;;
20945;SDS011;10632;51.276;7.116;2024-02-16T11:28:40;7.70;;;1.08;;
20945;SDS011;10632;51.276;7.116;2024-02-16T11:31:08;5.18;;;1.13;;
20945;SDS011;10632;51.276;7.116;2024-02-16T11:33:35;4.43;;;1.17;;
20945;SDS011;10632;51.276;7.116;2024-02-16T11:36:02;3.67;;;1.30;;
20945;SDS011;10632;51.276;7.116;2024-02-16T11:38:33;6.10;;;1.70;;
20945;SDS011;10632;51.276;7.116;2024-02-16T11:41:01;6.63;;;1.63;;
20945;SDS011;10632;51.276;7.116;2024-02-16T11:43:31;10.63;;;2.88;;
20945;SDS011;10632;51.276;7.116;2024-02-16T11:45:58;6.75;;;1.83;;
20945;SDS011;10632;51.276;7.116;2024-02-16T11:48:26;4.57;;;1.70;;
20945;SDS011;10632;51.276;7.116;2024-02-16T11:50:58;4.25;;;1.30;;
20945;SDS011;10632;51.276;7.116;2024-02-16T11:53:26;2.65;;;1.08;;
20945;SDS011;10632;51.276;7.116;2024-02-16T11:55:53;3.08;;;1.20;;
20945;SDS011;10632;51.276;7.116;2024-02-16T11:58:20;4.22;;;1.42;;
20945;SDS011;10632;51.276;7.116;2024-02-16T12:00:50;2.28;;;0.95;;
20945;SDS011;10632;51.276;7.116;2024-02-16T12:03:18;2.40;;;1.17;;
20945;SDS011;10632;51.276;7.116;2024-02-16T12:05:49;4.05;;;1.08;;
20945;SDS011;10632;51.276;7.116;2024-02-16T12:08:17;2.85;;;1.08;;
20945;SDS011;10632;51.276;7.116;2024-02-16T12:10:43;2.72;;;1.00;;
20945;SDS011;10632;51.276;7.116;2024-02-16T12:13:10;4.70;;;1.20;;
20945;SDS011;10632;51.276;7.116;2024-02-16T12:15:37;5.05;;;1.40;;
20945;SDS011;10632;51.276;7.116;2024-02-16T12:18:06;7.80;;;1.20;;
20945;SDS011;10632;51.276;7.116;2024-02-16T12:20:32;2.63;;;1.00;;
20945;SDS011;10632;51.276;7.116;2024-02-16T12:22:59;3.17;;;1.27;;
20945;SDS011;10632;51.276;7.116;2024-02-16T12:25:37;6.32;;;1.27;;
20945;SDS011;10632;51.276;7.116;2024-02-16T12:28:04;6.53;;;1.13;;
20945;SDS011;10632;51.276;7.116;2024-02-16T12:30:33;4.22;;;1.30;;
20945;SDS011;10632;51.276;7.116;2024-02-16T12:33:00;4.38;;;1.50;;
20945;SDS011;10632;51.276;7.116;2024-02-16T12:35:29;5.90;;;1.40;;
20945;SDS011;10632;51.276;7.116;2024-02-16T12:37:56;3.40;;;1.30;;
20945;SDS011;10632;51.276;7.116;2024-02-16T12:40:23;2.92;;;1.15;;
20945;SDS011;10632;51.276;7.116;2024-02-16T12:42:49;4.30;;;1.60;;
20945;SDS011;10632;51.276;7.116;2024-02-16T12:45:16;5.93;;;1.60;;
20945;SDS011;10632;51.276;7.116;2024-02-16T12:47:43;3.50;;;1.60;;
20945;SDS011;10632;51.276;7.116;2024-02-16T12:50:12;5.25;;;1.55;;
20945;SDS011;10632;51.276;7.116;2024-02-16T12:52:40;7.10;;;1.60;;
20945;SDS011;10632;51.276;7.116;2024-02-16T12:55:07;5.18;;;1.60;;
20945;SDS011;10632;51.276;7.116;2024-02-16T12:57:35;5.35;;;1.88;;
20945;SDS011;10632;51.276;7.116;2024-02-16T13:00:03;6.70;;;2.00;;
20945;SDS011;10632;51.276;7.116;2024-02-16T13:02:31;6.55;;;1.90;;
20945;SDS011;10632;51.276;7.116;2024-02-16T13:04:58;6.43;;;1.95;;
20945;SDS011;10632;51.276;7.116;2024-02-16T13:07:25;8.07;;;1.80;;
20945;SDS011;10632;51.276;7.116;2024-02-16T13:09:53;8.85;;;2.30;;
20945;SDS011;10632;51.276;7.116;2024-02-16T13:12:20;7.13;;;1.58;;
20945;SDS011;10632;51.276;7.116;2024-02-16T13:14:48;5.95;;;1.98;;
20945;SDS011;10632;51.276;7.116;2024-02-16T13:17:15;9.52;;;1.98;;
20945;SDS011;10632;51.276;7.116;2024-02-16T13:19:43;13.68;;;2.60;;
20945;SDS011;10632;51.276;7.116;2024-02-16T13:22:10;9.35;;;2.10;;
20945;SDS011;10632;51.276;7.116;2024-02-16T13:24:37;7.43;;;2.13;;
20945;SDS011;10632;51.276;7.116;2024-02-16T13:27:05;7.97;;;2.22;;
20945;SDS011;10632;51.276;7.116;2024-02-16T13:29:33;7.32;;;2.25;;
20945;SDS011;10632;51.276;7.116;2024-02-16T13:32:00;4.15;;;1.90;;
20945;SDS011;10632;51.276;7.116;2024-02-16T13:34:28;7.38;;;2.30;;
20945;SDS011;10632;51.276;7.116;2024-02-16T13:36:56;5.57;;;2.35;;
20945;SDS011;10632;51.276;7.116;2024-02-16T13:39:23;7.20;;;2.47;;
20945;SDS011;10632;51.276;7.116;2024-02-16T13:41:52;7.40;;;2.22;;
20945;SDS011;10632;51.276;7.116;2024-02-16T13:44:22;5.80;;;2.15;;
20945;SDS011;10632;51.276;7.116;2024-02-16T13:46:50;7.22;;;2.20;;
20945;SDS011;10632;51.276;7.116;2024-02-16T13:49:17;9.32;;;2.85;;
20945;SDS011;10632;51.276;7.116;2024-02-16T13:51:44;6.50;;;2.80;;
20945;SDS011;10632;51.276;7.116;2024-02-16T13:54:11;11.38;;;2.30;;
20945;SDS011;10632;51.276;7.116;2024-02-16T13:56:38;9.98;;;2.38;;
20945;SDS011;10632;51.276;7.116;2024-02-16T13:59:06;7.20;;;2.65;;
20945;SDS011;10632;51.276;7.116;2024-02-16T14:01:34;6.57;;;2.28;;
20945;SDS011;10632;51.276;7.116;2024-02-16T14:04:02;6.75;;;2.33;;
20945;SDS011;10632;51.276;7.116;2024-02-16T14:06:29;11.05;;;2.58;;
20945;SDS011;10632;51.276;7.116;2024-02-16T14:08:57;7.32;;;2.25;;
20945;SDS011;10632;51.276;7.116;2024-02-16T14:11:24;9.15;;;2.15;;
20945;SDS011;10632;51.276;7.116;2024-02-16T14:13:50;7.63;;;2.53;;
20945;SDS011;10632;51.276;7.116;2024-02-16T14:16:17;7.80;;;2.75;;
20945;SDS011;10632;51.276;7.116;2024-02-16T14:18:46;12.05;;;2.40;;
20945;SDS011;10632;51.276;7.116;2024-02-16T14:21:13;6.65;;;2.33;;
20945;SDS011;10632;51.276;7.116;2024-02-16T14:23:40;5.25;;;2.30;;
20945;SDS011;10632;51.276;7.116;2024-02-16T14:26:08;9.73;;;2.25;;
20945;SDS011;10632;51.276;7.116;2024-02-16T14:28:36;8.30;;;3.00;;
20945;SDS011;10632;51.276;7.116;2024-02-16T14:31:03;9.30;;;2.60;;
20945;SDS011;10632;51.276;7.116;2024-02-16T14:33:31;11.48;;;2.60;;
20945;SDS011;10632;51.276;7.116;2024-02-16T14:36:00;8.23;;;2.97;;
20945;SDS011;10632;51.276;7.116;2024-02-16T14:38:27;6.63;;;2.75;;
20945;SDS011;10632;51.276;7.116;2024-02-16T14:40:54;9.05;;;2.45;;
20945;SDS011;10632;51.276;7.116;2024-02-16T14:43:21;8.50;;;3.28;;
20945;SDS011;10632;51.276;7.116;2024-02-16T14:45:48;7.25;;;2.78;;
20945;SDS011;10632;51.276;7.116;2024-02-16T14:48:15;5.63;;;2.70;;
20945;SDS011;10632;51.276;7.116;2024-02-16T14:50:42;8.25;;;3.25;;